createdAt,value
2023-03-15T00:01:27.443Z,99988.63
2023-03-15T00:03:55.789Z,99989.59
2023-03-15T00:06:24.334Z,99985.35
2023-03-15T00:08:52.838Z,99980.75
2023-03-15T00:11:21.504Z,99980.46
2023-03-15T00:13:51.777Z,99976.42
2023-03-15T00:16:20.149Z,99970.94
2023-03-15T00:18:55.596Z,99966.85
2023-03-15T00:21:25.140Z,99963.47
2023-03-15T00:23:53.408Z,99955.09
2023-03-15T00:26:22.152Z,99950.50
2023-03-15T00:28:51.886Z,99954.03
2023-03-15T00:31:25.059Z,99951.75
2023-03-15T00:33:55.191Z,99960.90
2023-03-15T00:36:26.128Z,99951.65
2023-03-15T00:38:55.966Z,99951.90
2023-03-15T00:41:24.408Z,99956.25
2023-03-15T00:43:58.085Z,99953.52
2023-03-15T00:46:26.899Z,99950.29
2023-03-15T00:48:55.532Z,99947.02
2023-03-15T00:51:24.329Z,99950.15
2023-03-15T00:53:53.948Z,99952.59
2023-03-15T00:56:25.598Z,99952.45
2023-03-15T00:58:55.734Z,99948.50
2023-03-15T01:01:26.020Z,99946.87
2023-03-15T01:03:54.951Z,99939.98
2023-03-15T01:06:25.152Z,99941.92
2023-03-15T01:08:55.946Z,99942.00
2023-03-15T01:11:26.256Z,99941.85
2023-03-15T01:13:56.368Z,99946.15
2023-03-15T01:16:27.611Z,99949.08
2023-03-15T01:18:56.215Z,99952.72
2023-03-15T01:21:25.617Z,99951.08
2023-03-15T01:23:54.748Z,99953.73
2023-03-15T01:26:23.502Z,99957.59
2023-03-15T01:28:51.942Z,99959.26
2023-03-15T01:31:28.271Z,99959.89
2023-03-15T01:33:57.797Z,99961.30
2023-03-15T01:36:27.512Z,99956.98
2023-03-15T01:38:56.389Z,99955.26
2023-03-15T01:41:33.358Z,99953.77
2023-03-15T01:44:01.965Z,99952.00
2023-03-15T01:46:35.128Z,99950.25
2023-03-15T01:49:39.003Z,99959.70
2023-03-15T01:52:16.235Z,99959.13
2023-03-15T01:55:07.974Z,99960.09
2023-03-15T01:57:50.971Z,99963.42
2023-03-15T02:00:19.995Z,99960.95
2023-03-15T02:02:56.639Z,99957.34
2023-03-15T02:05:29.775Z,99958.23
2023-03-15T02:07:58.636Z,99957.98
2023-03-15T02:10:42.646Z,99962.15
2023-03-15T02:13:25.087Z,99961.20
2023-03-15T02:15:54.936Z,99960.02
2023-03-15T02:18:27.568Z,99952.70
2023-03-15T02:21:11.921Z,99957.40
2023-03-15T02:23:41.149Z,99958.84
2023-03-15T02:26:50.147Z,99955.65
2023-03-15T02:29:20.079Z,99951.77
2023-03-15T02:31:53.433Z,99943.46
2023-03-15T02:34:25.549Z,99940.81
2023-03-15T02:36:54.912Z,99945.45
2023-03-15T02:39:23.807Z,99943.85
2023-03-15T02:41:57.069Z,99941.15
2023-03-15T02:44:26.405Z,99936.52
2023-03-15T02:46:55.654Z,99935.00
2023-03-15T02:49:25.472Z,99931.38
2023-03-15T02:51:55.741Z,99928.73
2023-03-15T02:54:24.095Z,99928.01
2023-03-15T02:56:55.153Z,99922.64
2023-03-15T02:59:24.137Z,99914.91
2023-03-15T03:01:52.830Z,99923.13
2023-03-15T03:04:22.069Z,99922.66
2023-03-15T03:06:50.495Z,99922.05
2023-03-15T03:09:23.553Z,99918.20
2023-03-15T03:11:51.874Z,99918.38
2023-03-15T03:14:20.199Z,99912.12
2023-03-15T03:16:51.539Z,99913.21
2023-03-15T03:19:20.145Z,99916.83
2023-03-15T03:21:52.301Z,99911.45
2023-03-15T03:24:21.059Z,99914.34
2023-03-15T03:26:49.285Z,99916.97
2023-03-15T03:29:18.151Z,99917.26
2023-03-15T03:31:47.929Z,99921.58
2023-03-15T03:34:21.910Z,99920.08
2023-03-15T03:36:50.540Z,99919.95
2023-03-15T03:39:23.957Z,99920.34
2023-03-15T03:41:52.729Z,99922.46
2023-03-15T03:44:22.377Z,99925.80
2023-03-15T03:46:51.648Z,99925.56
2023-03-15T03:49:20.233Z,99924.32
2023-03-15T03:51:48.625Z,99928.64
2023-03-15T03:54:17.781Z,99926.71
2023-03-15T03:56:46.155Z,99926.36
2023-03-15T03:59:16.062Z,99921.88
2023-03-15T04:01:52.186Z,99920.19
2023-03-15T04:04:20.502Z,99924.20
2023-03-15T04:06:50.897Z,99924.54
2023-03-15T04:09:25.229Z,99924.04
2023-03-15T04:12:01.633Z,99921.94
2023-03-15T04:14:30.880Z,99926.04
2023-03-15T04:16:59.248Z,99928.43
2023-03-15T04:19:28.624Z,99933.44
2023-03-15T04:21:57.293Z,99929.73
2023-03-15T04:24:54.622Z,99932.63
2023-03-15T04:27:45.779Z,99931.98
2023-03-15T04:30:36.954Z,99931.86
2023-03-15T04:33:15.880Z,99932.11
2023-03-15T04:35:54.037Z,99930.05
2023-03-15T04:38:38.135Z,99925.47
2023-03-15T04:41:11.344Z,99920.30
2023-03-15T04:43:49.774Z,99925.68
2023-03-15T04:46:44.527Z,99933.04
2023-03-15T04:49:32.905Z,99943.04
2023-03-15T04:52:11.637Z,99941.80
2023-03-15T04:55:17.615Z,99941.39
2023-03-15T04:58:22.263Z,99946.52
2023-03-15T05:01:17.030Z,99948.29
2023-03-15T05:04:05.516Z,99949.98
2023-03-15T05:06:55.831Z,99947.61
2023-03-15T05:10:03.173Z,99945.70
2023-03-15T05:12:54.929Z,99945.37
2023-03-15T05:15:41.842Z,99946.86
2023-03-15T05:18:22.126Z,99952.13
2023-03-15T05:21:07.996Z,99947.77
2023-03-15T05:23:55.455Z,99957.20
2023-03-15T05:26:30.319Z,99953.30
2023-03-15T05:29:18.942Z,99954.33
2023-03-15T05:32:18.377Z,99957.39
2023-03-15T05:35:16.576Z,99957.90
2023-03-15T05:38:06.061Z,99958.04
2023-03-15T05:40:47.614Z,99962.77
2023-03-15T05:43:45.247Z,99959.89
2023-03-15T05:46:41.448Z,99961.25
2023-03-15T05:49:29.737Z,99964.54
2023-03-15T05:52:10.725Z,99972.48
2023-03-15T05:54:49.182Z,99961.17
2023-03-15T05:57:48.545Z,99959.17
2023-03-15T06:00:36.305Z,99954.14
2023-03-15T06:03:07.194Z,99959.66
2023-03-15T06:05:59.382Z,99955.91
2023-03-15T06:08:35.309Z,99955.35
2023-03-15T06:11:07.245Z,99953.45
2023-03-15T06:13:35.710Z,99957.86
2023-03-15T06:16:11.167Z,99955.85
2023-03-15T06:18:43.292Z,99955.73
2023-03-15T06:21:17.464Z,99962.61
2023-03-15T06:23:48.890Z,99962.74
2023-03-15T06:26:19.685Z,99963.05
2023-03-15T06:28:48.449Z,99966.06
2023-03-15T06:31:20.007Z,99959.25
2023-03-15T06:33:53.925Z,99949.27
2023-03-15T06:36:25.094Z,99946.71
2023-03-15T06:38:54.741Z,99946.56
2023-03-15T06:41:23.356Z,99943.60
2023-03-15T06:43:59.744Z,99945.47
2023-03-15T06:46:28.885Z,99936.73
2023-03-15T06:48:57.428Z,99938.05
2023-03-15T06:51:29.284Z,99937.92
2023-03-15T06:53:57.595Z,99938.23
2023-03-15T06:56:27.737Z,99943.06
2023-03-15T06:58:56.121Z,99940.64
2023-03-15T07:01:27.649Z,99937.81
2023-03-15T07:03:56.237Z,99930.62
2023-03-15T07:06:24.615Z,99932.57
2023-03-15T07:08:54.401Z,99928.10
2023-03-15T07:11:22.648Z,99930.61
2023-03-15T07:13:50.851Z,99928.20
2023-03-15T07:16:19.050Z,99926.71
2023-03-15T07:18:48.891Z,99931.52
2023-03-15T07:21:18.890Z,99934.29
2023-03-15T07:23:47.794Z,99936.04
2023-03-15T07:26:16.149Z,99931.48
2023-03-15T07:28:50.604Z,99934.96
2023-03-15T07:31:19.289Z,99938.98
2023-03-15T07:33:47.478Z,99934.89
2023-03-15T07:36:17.023Z,99934.54
2023-03-15T07:38:46.836Z,99937.42
2023-03-15T07:41:18.416Z,99935.64
2023-03-15T07:43:58.547Z,99929.63
2023-03-15T07:46:26.981Z,99932.62
2023-03-15T07:48:55.235Z,99934.21
2023-03-15T07:51:23.769Z,99927.23
2023-03-15T07:53:52.195Z,99927.32
2023-03-15T07:56:20.519Z,99927.88
2023-03-15T07:58:48.727Z,99927.04
2023-03-15T08:01:18.737Z,99928.49
2023-03-15T08:03:48.707Z,99936.08
2023-03-15T08:06:18.704Z,99938.10
2023-03-15T08:08:51.444Z,99932.31
2023-03-15T08:11:19.698Z,99926.04
2023-03-15T08:13:52.383Z,99919.03
2023-03-15T08:16:20.896Z,99910.35
2023-03-15T08:18:51.125Z,99907.98
2023-03-15T08:21:19.856Z,99915.80
2023-03-15T08:23:48.178Z,99907.64
2023-03-15T08:26:17.071Z,99915.30
2023-03-15T08:28:46.460Z,99916.14
2023-03-15T08:31:14.845Z,99921.39
2023-03-15T08:33:43.185Z,99925.55
2023-03-15T08:36:12.479Z,99928.63
2023-03-15T08:38:42.849Z,99922.05
2023-03-15T08:41:11.451Z,99922.41
2023-03-15T08:43:39.622Z,99915.96
2023-03-15T08:46:08.084Z,99910.79
2023-03-15T08:48:37.030Z,99906.86
2023-03-15T08:51:06.303Z,99901.38
2023-03-15T08:53:35.558Z,99909.21
2023-03-15T08:56:04.764Z,99904.52
2023-03-15T08:58:34.734Z,99907.98
2023-03-15T09:01:05.057Z,99909.71
2023-03-15T09:03:35.813Z,99918.09
2023-03-15T09:06:04.105Z,99911.77
2023-03-15T09:08:33.851Z,99908.49
2023-03-15T09:11:02.337Z,99904.00
2023-03-15T09:13:31.204Z,99907.56
2023-03-15T09:16:00.887Z,99903.79
2023-03-15T09:18:30.525Z,99903.88
2023-03-15T09:20:59.056Z,99901.88
2023-03-15T09:23:33.965Z,99899.29
2023-03-15T09:26:02.415Z,99892.23
2023-03-15T09:28:32.890Z,99888.61
2023-03-15T09:31:05.023Z,99888.53
2023-03-15T09:33:33.416Z,99892.42
2023-03-15T09:36:01.887Z,99887.54
2023-03-15T09:38:31.558Z,99895.16
2023-03-15T09:41:00.542Z,99900.40
2023-03-15T09:43:42.927Z,99898.44
2023-03-15T09:46:17.982Z,99901.60
2023-03-15T09:49:07.544Z,99901.95
2023-03-15T09:51:55.642Z,99908.58
2023-03-15T09:54:29.522Z,99896.98
2023-03-15T09:56:58.095Z,99887.24
2023-03-15T09:59:36.109Z,99873.50
2023-03-15T10:02:40.426Z,99877.98
2023-03-15T10:05:16.896Z,99882.29
2023-03-15T10:07:46.988Z,99879.77
2023-03-15T10:10:19.534Z,99880.17
2023-03-15T10:13:16.869Z,99880.61
2023-03-15T10:16:00.281Z,99876.21
2023-03-15T10:18:28.900Z,99866.23
2023-03-15T10:21:04.793Z,99866.95
2023-03-15T10:23:55.336Z,99865.70
2023-03-15T10:26:28.437Z,99867.96
2023-03-15T10:28:56.872Z,99861.45
2023-03-15T10:31:36.958Z,99853.59
2023-03-15T10:34:11.689Z,99844.48
2023-03-15T10:36:49.406Z,99851.64
2023-03-15T10:39:19.484Z,99859.10
2023-03-15T10:41:48.835Z,99867.70
2023-03-15T10:44:24.850Z,99861.86
2023-03-15T10:47:22.185Z,99861.80
2023-03-15T10:49:58.718Z,99856.58
2023-03-15T10:52:28.473Z,99857.61
2023-03-15T10:55:02.447Z,99855.48
2023-03-15T10:57:35.930Z,99849.07
2023-03-15T11:00:27.889Z,99855.08
2023-03-15T11:03:08.231Z,99840.63
2023-03-15T11:05:51.223Z,99840.89
2023-03-15T11:08:44.584Z,99840.15
2023-03-15T11:11:12.871Z,99838.19
2023-03-15T11:14:08.327Z,99839.51
2023-03-15T11:16:38.772Z,99838.60
2023-03-15T11:19:12.704Z,99835.24
2023-03-15T11:21:41.420Z,99841.29
2023-03-15T11:24:12.851Z,99844.33
2023-03-15T11:26:41.156Z,99841.39
2023-03-15T11:29:33.113Z,99842.83
2023-03-15T11:32:02.671Z,99846.42
2023-03-15T11:34:35.690Z,99843.88
2023-03-15T11:37:11.560Z,99852.06
2023-03-15T11:39:50.312Z,99847.10
2023-03-15T11:42:53.673Z,99840.92
2023-03-15T11:45:31.793Z,99842.80
2023-03-15T11:48:42.621Z,99839.33
2023-03-15T11:51:11.794Z,99840.86
2023-03-15T11:53:59.151Z,99839.48
2023-03-15T11:56:29.412Z,99833.94
2023-03-15T11:59:11.019Z,99836.59
2023-03-15T12:01:45.946Z,99829.84
2023-03-15T12:04:29.176Z,99830.99
2023-03-15T12:07:04.599Z,99829.16
2023-03-15T12:09:32.951Z,99831.11
2023-03-15T12:12:24.447Z,99827.86
2023-03-15T12:15:07.079Z,99816.33
2023-03-15T12:17:51.030Z,99810.69
2023-03-15T12:20:21.242Z,99810.39
2023-03-15T12:22:51.960Z,99812.89
2023-03-15T12:25:39.497Z,99809.48
2023-03-15T12:28:37.448Z,99810.84
2023-03-15T12:31:08.211Z,99806.14
2023-03-15T12:33:50.263Z,99806.12
2023-03-15T12:36:44.049Z,99807.55
2023-03-15T12:39:18.118Z,99812.92
2023-03-15T12:41:50.957Z,99813.54
2023-03-15T12:44:22.348Z,99815.62
2023-03-15T12:46:50.889Z,99817.60
2023-03-15T12:49:24.961Z,99817.58
2023-03-15T12:52:02.647Z,99815.06
2023-03-15T12:54:49.335Z,99810.71
2023-03-15T12:57:22.461Z,99805.94
2023-03-15T13:00:15.294Z,99807.86
2023-03-15T13:02:44.595Z,99801.81
2023-03-15T13:05:36.408Z,99797.16
2023-03-15T13:08:13.882Z,99801.61
2023-03-15T13:11:16.990Z,99803.98
2023-03-15T13:14:16.698Z,99806.91
2023-03-15T13:17:06.880Z,99812.86
2023-03-15T13:19:42.574Z,99812.00
2023-03-15T13:22:49.999Z,99807.94
2023-03-15T13:25:35.291Z,99821.50
2023-03-15T13:28:07.331Z,99821.93
2023-03-15T13:30:40.574Z,99828.21
2023-03-15T13:33:08.868Z,99830.02
2023-03-15T13:35:45.441Z,99830.28
2023-03-15T13:38:28.698Z,99828.44
2023-03-15T13:41:13.078Z,99827.59
2023-03-15T13:43:44.304Z,99829.06
2023-03-15T13:46:19.965Z,99829.73
2023-03-15T13:48:49.007Z,99825.07
2023-03-15T13:51:37.087Z,99821.84
2023-03-15T13:54:15.567Z,99818.21
2023-03-15T13:56:49.749Z,99819.47
2023-03-15T13:59:18.878Z,99814.41
2023-03-15T14:01:47.762Z,99805.39
2023-03-15T14:04:17.475Z,99801.85
2023-03-15T14:06:48.611Z,99799.27
2023-03-15T14:09:22.253Z,99796.44
2023-03-15T14:12:07.471Z,99794.20
2023-03-15T14:14:50.773Z,99799.98
2023-03-15T14:17:27.514Z,99793.23
2023-03-15T14:20:10.892Z,99787.49
2023-03-15T14:22:41.810Z,99791.26
2023-03-15T14:25:22.811Z,99786.45
2023-03-15T14:27:51.097Z,99789.38
2023-03-15T14:30:24.638Z,99792.75
2023-03-15T14:32:59.072Z,99793.30
2023-03-15T14:35:30.506Z,99791.02
2023-03-15T14:38:09.443Z,99785.13
2023-03-15T14:40:39.296Z,99787.81
2023-03-15T14:43:08.083Z,99789.41
2023-03-15T14:45:38.115Z,99789.67
2023-03-15T14:48:28.935Z,99782.35
2023-03-15T14:50:57.807Z,99779.91
2023-03-15T14:53:26.899Z,99785.63
2023-03-15T14:55:56.698Z,99787.86
2023-03-15T14:58:25.073Z,99789.20
2023-03-15T15:00:58.217Z,99790.25
2023-03-15T15:03:41.448Z,99786.83
2023-03-15T15:06:12.705Z,99792.33
2023-03-15T15:08:45.565Z,99786.95
2023-03-15T15:11:14.416Z,99791.07
2023-03-15T15:13:45.471Z,99796.96
2023-03-15T15:16:14.534Z,99798.77
2023-03-15T15:18:43.159Z,99795.00
2023-03-15T15:21:23.956Z,99796.67
2023-03-15T15:23:58.589Z,99802.86
2023-03-15T15:26:29.310Z,99805.23
2023-03-15T15:28:57.999Z,99805.35
2023-03-15T15:31:27.480Z,99801.73
2023-03-15T15:34:04.521Z,99805.33
2023-03-15T15:36:35.251Z,99803.70
2023-03-15T15:39:07.163Z,99802.79
2023-03-15T15:41:35.764Z,99803.52
2023-03-15T15:44:16.171Z,99808.84
2023-03-15T15:46:45.144Z,99809.08
2023-03-15T15:49:13.577Z,99808.38
2023-03-15T15:51:46.107Z,99812.35
2023-03-15T15:54:40.822Z,99813.23
2023-03-15T15:57:11.090Z,99814.47
2023-03-15T15:59:39.948Z,99821.39
2023-03-15T16:02:17.693Z,99820.23
2023-03-15T16:04:46.255Z,99820.01
2023-03-15T16:07:15.789Z,99814.11
2023-03-15T16:09:44.871Z,99814.98
2023-03-15T16:12:14.385Z,99820.23
2023-03-15T16:14:44.022Z,99823.54
2023-03-15T16:17:22.516Z,99822.60
2023-03-15T16:19:53.304Z,99829.95
2023-03-15T16:22:22.512Z,99837.20
2023-03-15T16:24:53.753Z,99834.73
2023-03-15T16:27:23.552Z,99837.51
2023-03-15T16:29:53.363Z,99840.57
2023-03-15T16:32:36.704Z,99843.70
2023-03-15T16:35:15.842Z,99840.70
2023-03-15T16:37:45.961Z,99840.59
2023-03-15T16:40:23.857Z,99838.30
2023-03-15T16:42:53.123Z,99840.39
2023-03-15T16:45:21.569Z,99840.19
2023-03-15T16:47:56.944Z,99835.20
2023-03-15T16:50:25.971Z,99841.14
2023-03-15T16:52:55.597Z,99844.30
2023-03-15T16:55:28.952Z,99842.84
2023-03-15T16:58:03.733Z,99841.05
2023-03-15T17:00:32.486Z,99844.24
2023-03-15T17:03:01.729Z,99843.11
2023-03-15T17:05:32.097Z,99846.54
2023-03-15T17:08:01.056Z,99839.13
2023-03-15T17:10:31.906Z,99840.17
2023-03-15T17:13:01.993Z,99835.83
2023-03-15T17:15:30.872Z,99835.11
2023-03-15T17:17:59.132Z,99835.80
2023-03-15T17:20:29.420Z,99836.04
2023-03-15T17:23:04.046Z,99837.44
2023-03-15T17:25:33.845Z,99837.23
2023-03-15T17:28:03.134Z,99836.95
2023-03-15T17:30:33.331Z,99837.94
2023-03-15T17:33:04.939Z,99833.78
2023-03-15T17:35:38.390Z,99832.73
2023-03-15T17:38:07.355Z,99836.64
2023-03-15T17:40:36.493Z,99841.79
2023-03-15T17:43:05.327Z,99841.54
2023-03-15T17:45:34.760Z,99843.71
2023-03-15T17:48:04.495Z,99852.09
2023-03-15T17:50:33.351Z,99856.45
2023-03-15T17:53:03.879Z,99855.92
2023-03-15T17:55:35.138Z,99853.81
2023-03-15T17:58:06.190Z,99855.48
2023-03-15T18:00:35.076Z,99859.61
2023-03-15T18:03:04.526Z,99854.64
2023-03-15T18:05:33.261Z,99858.88
2023-03-15T18:08:04.398Z,99866.76
2023-03-15T18:10:38.644Z,99866.88
2023-03-15T18:13:07.436Z,99866.63
2023-03-15T18:15:37.982Z,99865.84
2023-03-15T18:18:08.406Z,99860.00
2023-03-15T18:20:37.176Z,99854.38
2023-03-15T18:23:07.274Z,99853.98
2023-03-15T18:25:35.936Z,99856.35
2023-03-15T18:28:04.817Z,99857.30
2023-03-15T18:30:33.777Z,99856.35
2023-03-15T18:33:03.941Z,99859.63
2023-03-15T18:35:33.811Z,99859.60
2023-03-15T18:38:04.237Z,99858.52
2023-03-15T18:40:33.514Z,99859.90
2023-03-15T18:43:05.663Z,99862.88
2023-03-15T18:45:36.595Z,99861.08
2023-03-15T18:48:16.090Z,99862.20
2023-03-15T18:50:45.538Z,99859.58
2023-03-15T18:53:16.455Z,99858.70
2023-03-15T18:55:44.808Z,99858.38
2023-03-15T18:58:13.247Z,99862.30
2023-03-15T19:00:42.095Z,99867.02
2023-03-15T19:03:11.468Z,99870.41
2023-03-15T19:05:39.927Z,99874.90
2023-03-15T19:08:08.151Z,99872.55
2023-03-15T19:10:37.239Z,99871.36
2023-03-15T19:13:05.896Z,99873.30
2023-03-15T19:15:34.187Z,99872.96
2023-03-15T19:18:02.793Z,99875.39
2023-03-15T19:20:32.222Z,99875.52
2023-03-15T19:23:01.092Z,99871.36
2023-03-15T19:25:29.950Z,99873.35
2023-03-15T19:28:02.652Z,99870.81
2023-03-15T19:30:32.679Z,99869.64
2023-03-15T19:33:01.558Z,99870.35
2023-03-15T19:35:32.483Z,99869.10
2023-03-15T19:38:02.745Z,99868.44
2023-03-15T19:40:40.285Z,99864.92
2023-03-15T19:43:10.387Z,99867.81
2023-03-15T19:45:38.950Z,99863.66
2023-03-15T19:48:07.651Z,99866.55
2023-03-15T19:50:35.902Z,99869.20
2023-03-15T19:53:09.406Z,99867.17
2023-03-15T19:55:37.896Z,99869.61
2023-03-15T19:58:06.140Z,99868.23
2023-03-15T20:00:34.751Z,99868.83
2023-03-15T20:03:03.440Z,99869.44
2023-03-15T20:05:32.120Z,99862.36
2023-03-15T20:08:02.229Z,99863.80
2023-03-15T20:10:31.105Z,99863.27
2023-03-15T20:13:00.286Z,99865.48
2023-03-15T20:15:29.893Z,99861.58
2023-03-15T20:17:58.141Z,99861.98
2023-03-15T20:20:26.455Z,99860.38
2023-03-15T20:22:55.102Z,99864.55
2023-03-15T20:25:25.486Z,99868.08
2023-03-15T20:27:53.975Z,99864.02
2023-03-15T20:30:22.535Z,99858.45
2023-03-15T20:32:53.721Z,99853.49
2023-03-15T20:35:21.978Z,99854.78
2023-03-15T20:37:53.125Z,99852.23
2023-03-15T20:40:21.992Z,99853.82
2023-03-15T20:42:57.381Z,99853.54
2023-03-15T20:45:25.776Z,99855.98
2023-03-15T20:47:54.833Z,99852.52
2023-03-15T20:50:23.937Z,99857.23
2023-03-15T20:52:54.139Z,99852.54
2023-03-15T20:55:23.757Z,99849.03
2023-03-15T20:57:53.393Z,99850.41
2023-03-15T21:00:23.073Z,99851.29
2023-03-15T21:02:53.019Z,99851.80
2023-03-15T21:05:22.797Z,99854.70
2023-03-15T21:07:51.445Z,99846.45
2023-03-15T21:10:19.934Z,99850.70
2023-03-15T21:12:48.235Z,99851.77
2023-03-15T21:15:24.429Z,99848.45
2023-03-15T21:17:53.498Z,99848.91
2023-03-15T21:20:22.090Z,99846.82
2023-03-15T21:22:53.072Z,99844.88
2023-03-15T21:25:21.598Z,99842.56
2023-03-15T21:27:49.770Z,99845.52
2023-03-15T21:30:18.416Z,99842.05
2023-03-15T21:32:47.889Z,99845.74
2023-03-15T21:35:22.107Z,99848.81
2023-03-15T21:37:50.608Z,99854.24
2023-03-15T21:40:18.841Z,99852.86
2023-03-15T21:42:47.982Z,99852.78
2023-03-15T21:45:16.515Z,99857.16
2023-03-15T21:47:49.736Z,99856.02
2023-03-15T21:50:18.318Z,99860.30
2023-03-15T21:52:46.456Z,99862.66
2023-03-15T21:55:15.666Z,99869.54
2023-03-15T21:57:45.111Z,99867.83
2023-03-15T22:00:20.105Z,99867.58
2023-03-15T22:02:48.769Z,99868.02
2023-03-15T22:05:17.360Z,99864.33
2023-03-15T22:07:46.650Z,99865.27
2023-03-15T22:10:15.756Z,99864.52
2023-03-15T22:12:44.792Z,99858.56
2023-03-15T22:15:14.146Z,99854.02
2023-03-15T22:17:45.317Z,99851.02
2023-03-15T22:20:16.926Z,99845.91
2023-03-15T22:22:47.650Z,99843.89
2023-03-15T22:25:16.037Z,99840.90
2023-03-15T22:27:45.871Z,99843.10
2023-03-15T22:30:14.484Z,99844.63
2023-03-15T22:32:45.964Z,99850.66
2023-03-15T22:35:16.139Z,99852.52
2023-03-15T22:37:44.522Z,99852.83
2023-03-15T22:40:16.343Z,99858.20
2023-03-15T22:42:46.992Z,99858.36
2023-03-15T22:45:20.539Z,99857.29
2023-03-15T22:47:49.934Z,99858.14
2023-03-15T22:50:18.513Z,99861.54
2023-03-15T22:52:47.831Z,99863.94
2023-03-15T22:55:18.074Z,99860.20
2023-03-15T22:57:47.581Z,99862.79
2023-03-15T23:00:17.929Z,99862.10
2023-03-15T23:02:50.808Z,99866.08
2023-03-15T23:05:19.843Z,99866.23
2023-03-15T23:07:48.330Z,99865.56
2023-03-15T23:10:16.818Z,99863.67
2023-03-15T23:12:46.191Z,99863.53
2023-03-15T23:15:15.413Z,99866.45
2023-03-15T23:17:46.940Z,99866.96
2023-03-15T23:20:17.117Z,99866.02
2023-03-15T23:22:45.564Z,99860.41
2023-03-15T23:25:15.020Z,99860.09
2023-03-15T23:27:43.233Z,99855.52
2023-03-15T23:30:13.834Z,99858.52
2023-03-15T23:32:42.820Z,99848.50
2023-03-15T23:35:15.119Z,99847.83
2023-03-15T23:37:45.566Z,99848.23
2023-03-15T23:40:15.286Z,99847.61
2023-03-15T23:42:45.359Z,99849.17
2023-03-15T23:45:15.430Z,99853.18
2023-03-15T23:47:47.355Z,99848.77
2023-03-15T23:50:17.701Z,99843.20
2023-03-15T23:52:45.944Z,99842.91
2023-03-15T23:55:14.980Z,99838.58
2023-03-15T23:57:43.536Z,99835.61
